createdAt,value
2023-05-08T00:01:17.057Z,101863.06
2023-05-08T00:03:43.491Z,101832.22
2023-05-08T00:06:09.828Z,101819.53
2023-05-08T00:08:36.032Z,101892.56
2023-05-08T00:11:02.269Z,101936.53
2023-05-08T00:13:28.478Z,101911.31
2023-05-08T00:15:54.705Z,101905.06
2023-05-08T00:18:20.921Z,101915.91
2023-05-08T00:20:47.195Z,101898.03
2023-05-08T00:23:13.543Z,101899.03
2023-05-08T00:25:39.749Z,101895.47
2023-05-08T00:28:06.003Z,101889.03
2023-05-08T00:30:32.232Z,101880.75
2023-05-08T00:32:58.479Z,101905.41
2023-05-08T00:35:24.742Z,101946.69
2023-05-08T00:37:50.966Z,101917.44
2023-05-08T00:40:17.187Z,101899.88
2023-05-08T00:42:43.379Z,101898.22
2023-05-08T00:45:09.761Z,101912.31
2023-05-08T00:47:35.990Z,101933.50
2023-05-08T00:50:02.242Z,101936.63
2023-05-08T00:52:29.276Z,101954.25
2023-05-08T00:54:55.492Z,101945.09
2023-05-08T00:57:21.838Z,101936.66
2023-05-08T00:59:48.039Z,101914.28
2023-05-08T01:02:14.303Z,101921.84
2023-05-08T01:04:40.573Z,101910.06
2023-05-08T01:07:06.766Z,101905.84
2023-05-08T01:09:32.977Z,101940.88
2023-05-08T01:12:05.439Z,101925.88
2023-05-08T01:14:46.762Z,101937.00
2023-05-08T01:17:22.049Z,101959.69
2023-05-08T01:20:05.444Z,101956.66
2023-05-08T01:22:43.582Z,101917.34
2023-05-08T01:25:09.736Z,101949.00
2023-05-08T01:27:47.895Z,101908.25
2023-05-08T01:30:29.577Z,101926.38
2023-05-08T01:32:56.720Z,101888.97
2023-05-08T01:35:27.672Z,101868.94
2023-05-08T01:37:56.858Z,101847.66
2023-05-08T01:40:33.487Z,101899.69
2023-05-08T01:43:03.636Z,101890.94
2023-05-08T01:45:31.279Z,101890.63
2023-05-08T01:48:00.484Z,101932.41
2023-05-08T01:50:30.265Z,101975.13
2023-05-08T01:53:02.787Z,101960.28
2023-05-08T01:55:30.555Z,101996.59
2023-05-08T01:57:57.505Z,101985.25
2023-05-08T02:00:23.733Z,101955.91
2023-05-08T02:02:50.042Z,101939.06
2023-05-08T02:05:16.399Z,101952.34
2023-05-08T02:07:42.653Z,101945.06
2023-05-08T02:10:08.858Z,101921.56
2023-05-08T02:12:35.083Z,101965.91
2023-05-08T02:15:01.318Z,101974.09
2023-05-08T02:17:27.636Z,101981.50
2023-05-08T02:19:54.054Z,101978.56
2023-05-08T02:22:20.271Z,101987.25
2023-05-08T02:24:46.480Z,101973.19
2023-05-08T02:27:12.679Z,101927.09
2023-05-08T02:29:38.899Z,101939.03
2023-05-08T02:32:05.279Z,101954.59
2023-05-08T02:34:31.548Z,101949.91
2023-05-08T02:36:57.769Z,101921.25
2023-05-08T02:39:25.274Z,101938.97
2023-05-08T02:41:51.503Z,101940.25
2023-05-08T02:44:17.699Z,101942.94
2023-05-08T02:46:53.200Z,101930.16
2023-05-08T02:49:42.084Z,101943.16
2023-05-08T02:52:27.184Z,101928.75
2023-05-08T02:54:58.491Z,101926.34
2023-05-08T02:57:43.563Z,101899.56
2023-05-08T03:00:16.599Z,101927.28
2023-05-08T03:03:05.177Z,101928.16
2023-05-08T03:05:37.823Z,101922.97
2023-05-08T03:08:05.089Z,101933.19
2023-05-08T03:10:34.487Z,101934.50
2023-05-08T03:13:02.745Z,101958.06
2023-05-08T03:15:41.759Z,102007.84
2023-05-08T03:18:08.769Z,102018.22
2023-05-08T03:20:37.232Z,102010.78
2023-05-08T03:23:03.456Z,102014.09
2023-05-08T03:25:29.804Z,101992.09
2023-05-08T03:27:56.061Z,102001.25
2023-05-08T03:30:22.296Z,101963.03
2023-05-08T03:32:48.531Z,101944.22
2023-05-08T03:35:14.746Z,101923.75
2023-05-08T03:37:40.962Z,101939.50
2023-05-08T03:40:07.460Z,101936.66
2023-05-08T03:42:33.671Z,101910.88
2023-05-08T03:44:59.894Z,101897.63
2023-05-08T03:47:26.188Z,101908.81
2023-05-08T03:49:52.464Z,101908.75
2023-05-08T03:52:18.686Z,101914.31
2023-05-08T03:54:44.910Z,101907.09
2023-05-08T03:57:11.121Z,101921.81
2023-05-08T03:59:40.390Z,101905.66
2023-05-08T04:02:12.794Z,101900.78
2023-05-08T04:04:39.568Z,101885.88
2023-05-08T04:07:13.007Z,101856.47
2023-05-08T04:09:43.203Z,101883.25
2023-05-08T04:12:17.700Z,101897.38
2023-05-08T04:14:45.388Z,101909.16
2023-05-08T04:17:11.793Z,101889.25
2023-05-08T04:19:38.760Z,101910.88
2023-05-08T04:22:05.951Z,101911.22
2023-05-08T04:24:32.139Z,101938.56
2023-05-08T04:26:58.357Z,101952.81
2023-05-08T04:29:24.565Z,101937.06
2023-05-08T04:31:50.858Z,101921.41
2023-05-08T04:34:17.133Z,101903.19
2023-05-08T04:36:43.337Z,101920.16
2023-05-08T04:39:09.541Z,101898.34
2023-05-08T04:41:35.827Z,101875.69
2023-05-08T04:44:02.627Z,101880.47
2023-05-08T04:46:28.908Z,101903.97
2023-05-08T04:48:55.168Z,101881.47
2023-05-08T04:51:21.380Z,101816.84
2023-05-08T04:53:47.571Z,101779.47
2023-05-08T04:56:13.780Z,101779.28
2023-05-08T04:58:39.979Z,101724.97
2023-05-08T05:01:06.307Z,101656.38
2023-05-08T05:03:32.719Z,101534.22
2023-05-08T05:06:01.914Z,101488.53
2023-05-08T05:08:28.125Z,101457.34
2023-05-08T05:10:54.339Z,101389.75
2023-05-08T05:13:20.701Z,101451.38
2023-05-08T05:15:46.960Z,101428.44
2023-05-08T05:18:13.314Z,101459.59
2023-05-08T05:20:39.545Z,101556.34
2023-05-08T05:23:05.755Z,101521.75
2023-05-08T05:25:31.965Z,101325.84
2023-05-08T05:27:58.180Z,101337.31
2023-05-08T05:30:24.393Z,101248.41
2023-05-08T05:32:50.639Z,101088.97
2023-05-08T05:35:16.876Z,101076.44
2023-05-08T05:37:43.113Z,100989.44
2023-05-08T05:40:09.497Z,100925.63
2023-05-08T05:42:35.732Z,100886.34
2023-05-08T05:45:02.048Z,100800.38
2023-05-08T05:47:28.352Z,100785.50
2023-05-08T05:49:54.594Z,100706.34
2023-05-08T05:52:20.805Z,100750.75
2023-05-08T05:54:47.004Z,100675.59
2023-05-08T05:57:13.378Z,100675.09
2023-05-08T05:59:39.976Z,100540.28
2023-05-08T06:02:06.627Z,100592.69
2023-05-08T06:04:33.008Z,100387.34
2023-05-08T06:06:59.370Z,100491.69
2023-05-08T06:09:25.588Z,100412.00
2023-05-08T06:11:51.806Z,100448.50
2023-05-08T06:14:18.012Z,100651.22
2023-05-08T06:16:44.266Z,100551.53
2023-05-08T06:19:10.484Z,100584.88
2023-05-08T06:21:36.700Z,100609.66
2023-05-08T06:24:02.903Z,100473.41
2023-05-08T06:26:29.117Z,100665.34
2023-05-08T06:28:55.344Z,100617.06
2023-05-08T06:31:21.604Z,100773.75
2023-05-08T06:33:47.845Z,100588.25
2023-05-08T06:36:14.071Z,100578.28
2023-05-08T06:38:40.280Z,100584.19
2023-05-08T06:41:06.488Z,100416.78
2023-05-08T06:43:32.691Z,100253.06
2023-05-08T06:45:58.907Z,100334.91
2023-05-08T06:48:25.117Z,100289.41
2023-05-08T06:50:51.318Z,100117.97
2023-05-08T06:53:17.512Z,100158.94
2023-05-08T06:55:43.736Z,99954.19
2023-05-08T06:58:09.968Z,100041.72
2023-05-08T07:00:36.248Z,99892.94
2023-05-08T07:03:02.473Z,100008.38
2023-05-08T07:05:28.740Z,99763.06
2023-05-08T07:07:54.938Z,99626.66
2023-05-08T07:10:21.381Z,99567.13
2023-05-08T07:12:48.271Z,99400.78
2023-05-08T07:15:25.332Z,99564.84
2023-05-08T07:17:52.527Z,99683.41
2023-05-08T07:20:18.764Z,99440.63
2023-05-08T07:22:45.316Z,99414.56
2023-05-08T07:25:11.743Z,99466.88
2023-05-08T07:27:38.157Z,99457.44
2023-05-08T07:30:04.521Z,99324.88
2023-05-08T07:32:30.763Z,99546.00
2023-05-08T07:34:57.011Z,99430.09
2023-05-08T07:37:23.215Z,99403.75
2023-05-08T07:39:49.424Z,99322.41
2023-05-08T07:42:15.632Z,99247.06
2023-05-08T07:44:53.649Z,99262.00
2023-05-08T07:47:20.892Z,99267.47
2023-05-08T07:49:47.156Z,99114.00
2023-05-08T07:52:13.384Z,99099.44
2023-05-08T07:54:39.633Z,99096.69
2023-05-08T07:57:05.845Z,99214.13
2023-05-08T07:59:32.038Z,99080.66
2023-05-08T08:01:58.268Z,99067.53
2023-05-08T08:04:24.491Z,99317.09
2023-05-08T08:06:50.759Z,99312.19
2023-05-08T08:09:16.973Z,99189.53
2023-05-08T08:11:43.198Z,99336.47
2023-05-08T08:14:09.398Z,99353.13
2023-05-08T08:16:35.614Z,99324.84
2023-05-08T08:19:01.868Z,99485.78
2023-05-08T08:21:28.086Z,99342.25
2023-05-08T08:23:54.283Z,99244.69
2023-05-08T08:26:20.482Z,99232.41
2023-05-08T08:28:46.767Z,99323.84
2023-05-08T08:31:14.229Z,99201.31
2023-05-08T08:33:40.542Z,99041.34
2023-05-08T08:36:14.805Z,98942.44
2023-05-08T08:38:41.097Z,99172.59
2023-05-08T08:41:07.316Z,98916.06
2023-05-08T08:43:33.862Z,98956.28
2023-05-08T08:46:05.146Z,99055.72
2023-05-08T08:48:31.424Z,99000.91
2023-05-08T08:50:58.814Z,99182.63
2023-05-08T08:53:30.871Z,98858.97
2023-05-08T08:55:57.172Z,98919.69
2023-05-08T08:58:26.510Z,98829.19
2023-05-08T09:00:52.742Z,99067.63
2023-05-08T09:03:20.054Z,99082.19
2023-05-08T09:05:46.360Z,99091.31
2023-05-08T09:08:12.612Z,98870.94
2023-05-08T09:10:40.538Z,98829.53
2023-05-08T09:13:06.859Z,98766.06
2023-05-08T09:15:33.524Z,98906.53
2023-05-08T09:18:00.897Z,98831.84
2023-05-08T09:20:27.133Z,98792.50
2023-05-08T09:22:53.492Z,98930.91
2023-05-08T09:25:19.712Z,99144.91
2023-05-08T09:27:47.128Z,99048.94
2023-05-08T09:30:13.374Z,98895.19
2023-05-08T09:32:44.023Z,98922.94
2023-05-08T09:35:11.289Z,98830.72
2023-05-08T09:37:41.822Z,98901.16
2023-05-08T09:40:20.963Z,99016.88
2023-05-08T09:42:49.599Z,98950.19
2023-05-08T09:45:25.778Z,98811.66
2023-05-08T09:47:52.090Z,98858.00
2023-05-08T09:50:18.381Z,98955.31
2023-05-08T09:52:48.259Z,98687.22
2023-05-08T09:55:14.537Z,98740.69
2023-05-08T09:57:51.251Z,98787.19
2023-05-08T10:00:17.861Z,98602.09
2023-05-08T10:02:54.112Z,98696.72
2023-05-08T10:05:24.732Z,98557.72
2023-05-08T10:07:52.388Z,98713.94
2023-05-08T10:10:28.363Z,98893.47
2023-05-08T10:12:55.216Z,98853.16
2023-05-08T10:15:44.843Z,98648.69
2023-05-08T10:18:12.801Z,98746.56
2023-05-08T10:20:41.994Z,98685.25
2023-05-08T10:23:08.563Z,98598.41
2023-05-08T10:25:35.160Z,99038.88
2023-05-08T10:28:10.292Z,98806.50
2023-05-08T10:30:37.464Z,99071.03
2023-05-08T10:33:06.429Z,99093.66
2023-05-08T10:35:32.769Z,98806.06
2023-05-08T10:38:01.344Z,98628.25
2023-05-08T10:40:28.034Z,98565.19
2023-05-08T10:42:54.247Z,98496.09
2023-05-08T10:45:22.102Z,98569.50
2023-05-08T10:47:53.865Z,98640.13
2023-05-08T10:50:39.180Z,98861.47
2023-05-08T10:53:14.226Z,98832.81
2023-05-08T10:55:41.169Z,98676.03
2023-05-08T10:58:13.390Z,98804.56
2023-05-08T11:00:52.180Z,98737.03
2023-05-08T11:03:30.614Z,99059.59
2023-05-08T11:06:02.038Z,98783.97
2023-05-08T11:08:28.734Z,98870.81
2023-05-08T11:11:05.540Z,98984.81
2023-05-08T11:13:48.264Z,98743.22
2023-05-08T11:16:14.590Z,98524.94
2023-05-08T11:19:13.253Z,98755.13
2023-05-08T11:21:40.931Z,98886.16
2023-05-08T11:24:10.472Z,99214.59
2023-05-08T11:26:46.744Z,98995.13
2023-05-08T11:29:21.161Z,98795.88
2023-05-08T11:31:51.507Z,98810.38
2023-05-08T11:34:44.085Z,98820.81
2023-05-08T11:37:13.757Z,98608.22
2023-05-08T11:39:41.046Z,98812.59
2023-05-08T11:42:26.335Z,98932.28
2023-05-08T11:45:05.920Z,98869.63
2023-05-08T11:47:42.681Z,98885.06
2023-05-08T11:50:13.602Z,98829.94
2023-05-08T11:52:40.876Z,99211.25
2023-05-08T11:55:07.969Z,98696.59
2023-05-08T11:57:34.242Z,98699.19
2023-05-08T12:00:07.132Z,98827.91
2023-05-08T12:02:42.935Z,98652.91
2023-05-08T12:05:09.694Z,98718.81
2023-05-08T12:07:42.767Z,98830.13
2023-05-08T12:10:09.184Z,98892.69
2023-05-08T12:12:43.519Z,98786.06
2023-05-08T12:15:10.479Z,98725.34
2023-05-08T12:17:36.754Z,98714.41
2023-05-08T12:20:12.964Z,98744.56
2023-05-08T12:22:49.660Z,98672.44
2023-05-08T12:25:16.228Z,98582.56
2023-05-08T12:27:44.234Z,98578.00
2023-05-08T12:30:18.738Z,98617.72
2023-05-08T12:32:47.066Z,98827.91
2023-05-08T12:35:13.376Z,98481.88
2023-05-08T12:37:46.981Z,98759.28
2023-05-08T12:40:23.485Z,98807.47
2023-05-08T12:42:50.750Z,98611.59
2023-05-08T12:45:21.199Z,98759.16
2023-05-08T12:47:48.175Z,98836.78
2023-05-08T12:50:15.131Z,98850.47
2023-05-08T12:52:41.549Z,99046.72
2023-05-08T12:55:24.575Z,98990.06
2023-05-08T12:57:51.031Z,98865.19
2023-05-08T13:00:17.713Z,98664.53
2023-05-08T13:02:53.577Z,98440.53
2023-05-08T13:05:22.934Z,98679.13
2023-05-08T13:07:52.230Z,98720.56
2023-05-08T13:10:23.444Z,98657.97
2023-05-08T13:12:51.074Z,98777.63
2023-05-08T13:15:17.328Z,98854.75
2023-05-08T13:17:43.588Z,98892.44
2023-05-08T13:20:10.271Z,98859.47
2023-05-08T13:22:36.529Z,98873.25
2023-05-08T13:25:02.767Z,98501.19
2023-05-08T13:27:28.970Z,98484.06
2023-05-08T13:29:55.166Z,98344.56
2023-05-08T13:32:21.420Z,98467.25
2023-05-08T13:34:51.402Z,98377.53
2023-05-08T13:37:18.470Z,98159.44
2023-05-08T13:39:44.684Z,98424.03
2023-05-08T13:42:10.911Z,98796.16
2023-05-08T13:44:37.119Z,98706.69
2023-05-08T13:47:03.557Z,98764.59
2023-05-08T13:49:29.752Z,98725.72
2023-05-08T13:51:57.189Z,98753.53
2023-05-08T13:54:23.678Z,98816.31
2023-05-08T13:56:49.917Z,99029.31
2023-05-08T13:59:16.238Z,99015.59
2023-05-08T14:01:42.502Z,98781.75
2023-05-08T14:04:08.934Z,99210.38
2023-05-08T14:06:35.247Z,98865.63
2023-05-08T14:09:01.455Z,98891.19
2023-05-08T14:11:27.867Z,98942.19
2023-05-08T14:13:54.097Z,98787.28
2023-05-08T14:16:20.487Z,98926.41
2023-05-08T14:18:46.720Z,98778.22
2023-05-08T14:21:12.937Z,98925.81
2023-05-08T14:23:39.136Z,99194.31
2023-05-08T14:26:05.342Z,99118.88
2023-05-08T14:28:31.551Z,99101.22
2023-05-08T14:30:57.876Z,99098.13
2023-05-08T14:33:24.103Z,99075.41
2023-05-08T14:35:50.318Z,99101.34
2023-05-08T14:38:16.539Z,98801.41
2023-05-08T14:40:42.757Z,98916.59
2023-05-08T14:43:09.050Z,98961.78
2023-05-08T14:45:35.538Z,98940.72
2023-05-08T14:48:01.788Z,98644.94
2023-05-08T14:50:28.044Z,98677.91
2023-05-08T14:52:54.441Z,98881.81
2023-05-08T14:55:21.452Z,98481.47
2023-05-08T14:57:48.064Z,98625.75
2023-05-08T15:00:14.972Z,98560.94
2023-05-08T15:02:41.475Z,98250.84
2023-05-08T15:05:10.999Z,98231.91
2023-05-08T15:07:43.509Z,98453.88
2023-05-08T15:10:09.803Z,98205.22
2023-05-08T15:12:36.025Z,98306.25
2023-05-08T15:15:04.398Z,98316.78
2023-05-08T15:17:31.045Z,98615.31
2023-05-08T15:19:57.290Z,98476.19
2023-05-08T15:22:23.566Z,98514.44
2023-05-08T15:24:49.771Z,98592.94
2023-05-08T15:27:15.980Z,98575.78
2023-05-08T15:29:42.189Z,98494.16
2023-05-08T15:32:08.600Z,98682.25
2023-05-08T15:34:34.892Z,98706.63
2023-05-08T15:37:01.139Z,98421.56
2023-05-08T15:39:27.356Z,98554.63
2023-05-08T15:41:53.562Z,98383.88
2023-05-08T15:44:19.822Z,98634.84
2023-05-08T15:46:46.094Z,98746.38
2023-05-08T15:49:12.358Z,98673.03
2023-05-08T15:51:38.606Z,98704.19
2023-05-08T15:54:04.830Z,98570.94
2023-05-08T15:56:31.040Z,98768.59
2023-05-08T15:58:57.243Z,98639.25
2023-05-08T16:01:23.508Z,98681.97
2023-05-08T16:03:49.806Z,98889.16
2023-05-08T16:06:16.093Z,98817.97
2023-05-08T16:08:42.309Z,98820.84
2023-05-08T16:11:08.526Z,98685.44
2023-05-08T16:13:34.747Z,98669.03
2023-05-08T16:16:04.233Z,98531.69
2023-05-08T16:18:30.502Z,98734.41
2023-05-08T16:20:56.714Z,98727.31
2023-05-08T16:23:22.931Z,98814.09
2023-05-08T16:25:49.140Z,98682.53
2023-05-08T16:28:15.446Z,98731.47
2023-05-08T16:30:41.723Z,98858.88
2023-05-08T16:33:08.069Z,98652.66
2023-05-08T16:35:34.303Z,98670.03
2023-05-08T16:38:00.518Z,98692.19
2023-05-08T16:40:26.703Z,98581.50
2023-05-08T16:42:52.913Z,98616.75
2023-05-08T16:45:19.128Z,98639.97
2023-05-08T16:47:45.735Z,98650.94
2023-05-08T16:50:12.129Z,98992.25
2023-05-08T16:52:38.487Z,98875.94
2023-05-08T16:55:04.893Z,98807.47
2023-05-08T16:57:31.129Z,98933.44
2023-05-08T16:59:57.329Z,99003.75
2023-05-08T17:02:23.649Z,98924.41
2023-05-08T17:04:49.922Z,99117.78
2023-05-08T17:07:16.424Z,99033.16
2023-05-08T17:09:42.649Z,98954.44
2023-05-08T17:12:08.881Z,99006.03
2023-05-08T17:14:35.150Z,99089.31
2023-05-08T17:17:01.370Z,98943.41
2023-05-08T17:19:27.586Z,99043.78
2023-05-08T17:21:54.133Z,99157.53
2023-05-08T17:24:20.349Z,99284.81
2023-05-08T17:26:46.900Z,99256.00
2023-05-08T17:29:13.089Z,99491.88
2023-05-08T17:31:39.326Z,99162.47
2023-05-08T17:34:08.544Z,99252.22
2023-05-08T17:36:34.915Z,99296.78
2023-05-08T17:39:01.124Z,99346.19
2023-05-08T17:41:27.383Z,99465.06
2023-05-08T17:43:53.577Z,99349.63
2023-05-08T17:46:22.192Z,99357.22
2023-05-08T17:48:48.406Z,99461.50
2023-05-08T17:51:14.917Z,99438.56
2023-05-08T17:53:41.142Z,99360.19
2023-05-08T17:56:08.703Z,99325.50
2023-05-08T17:58:34.938Z,99396.09
2023-05-08T18:01:01.185Z,99474.16
2023-05-08T18:03:27.498Z,99397.69
2023-05-08T18:05:53.755Z,99480.94
2023-05-08T18:08:19.981Z,99562.81
2023-05-08T18:10:46.183Z,99649.13
2023-05-08T18:13:12.435Z,99707.47
2023-05-08T18:15:41.846Z,99665.53
2023-05-08T18:18:08.146Z,99715.63
2023-05-08T18:20:34.502Z,99754.41
2023-05-08T18:23:00.787Z,99714.59
2023-05-08T18:25:27.010Z,99916.31
2023-05-08T18:27:53.224Z,99938.13
2023-05-08T18:30:19.427Z,99851.78
2023-05-08T18:32:45.682Z,99740.81
2023-05-08T18:35:11.894Z,99869.38
2023-05-08T18:37:38.110Z,99830.03
2023-05-08T18:40:04.487Z,99836.47
2023-05-08T18:42:30.706Z,99903.41
2023-05-08T18:44:56.909Z,99811.84
2023-05-08T18:47:23.217Z,99815.91
2023-05-08T18:49:50.390Z,99816.91
2023-05-08T18:52:16.620Z,99906.84
2023-05-08T18:54:42.815Z,99908.00
2023-05-08T18:57:09.026Z,99857.09
2023-05-08T18:59:35.227Z,99888.72
2023-05-08T19:02:01.451Z,99995.09
2023-05-08T19:04:27.666Z,100029.88
2023-05-08T19:06:53.906Z,100076.25
2023-05-08T19:09:20.121Z,100077.56
2023-05-08T19:11:46.335Z,100049.22
2023-05-08T19:14:12.539Z,100122.56
2023-05-08T19:16:38.756Z,100117.97
2023-05-08T19:19:04.979Z,100193.78
2023-05-08T19:21:31.209Z,100245.28
2023-05-08T19:23:57.420Z,100337.19
2023-05-08T19:26:23.645Z,100342.91
2023-05-08T19:28:49.866Z,100367.88
2023-05-08T19:31:16.120Z,100346.41
2023-05-08T19:33:42.372Z,100358.19
2023-05-08T19:36:08.585Z,100331.66
2023-05-08T19:38:34.812Z,100376.81
2023-05-08T19:41:01.017Z,100363.41
2023-05-08T19:43:27.238Z,100280.06
2023-05-08T19:45:53.487Z,100382.66
2023-05-08T19:48:19.770Z,100424.63
2023-05-08T19:50:46.071Z,100461.09
2023-05-08T19:53:12.299Z,100444.06
2023-05-08T19:55:38.512Z,100571.75
2023-05-08T19:58:04.732Z,100588.78
2023-05-08T20:00:30.930Z,100555.72
2023-05-08T20:02:57.174Z,100612.34
2023-05-08T20:05:23.543Z,100671.34
2023-05-08T20:07:49.861Z,100745.72
2023-05-08T20:10:16.380Z,100688.00
2023-05-08T20:12:42.848Z,100810.81
2023-05-08T20:15:09.414Z,100841.81
2023-05-08T20:17:35.667Z,100879.81
2023-05-08T20:20:01.995Z,100848.75
2023-05-08T20:22:28.272Z,100817.25
2023-05-08T20:24:54.485Z,100874.22
2023-05-08T20:27:20.705Z,100864.16
2023-05-08T20:29:46.898Z,100818.16
2023-05-08T20:32:13.149Z,100849.03
2023-05-08T20:34:39.364Z,100830.22
2023-05-08T20:37:05.598Z,100808.19
2023-05-08T20:39:31.806Z,100799.81
2023-05-08T20:41:58.019Z,100836.22
2023-05-08T20:44:24.226Z,100806.75
2023-05-08T20:46:50.447Z,100847.13
2023-05-08T20:49:16.655Z,100872.78
2023-05-08T20:51:42.937Z,100837.38
2023-05-08T20:54:09.367Z,100858.59
2023-05-08T20:56:35.591Z,100903.44
2023-05-08T20:59:02.015Z,100908.75
2023-05-08T21:01:28.261Z,100892.38
2023-05-08T21:03:54.500Z,100917.31
2023-05-08T21:06:20.756Z,100791.19
2023-05-08T21:08:46.981Z,100917.50
2023-05-08T21:11:13.185Z,100936.16
2023-05-08T21:13:39.395Z,100882.19
2023-05-08T21:16:05.705Z,100915.25
2023-05-08T21:18:31.942Z,100933.13
2023-05-08T21:20:58.137Z,100910.41
2023-05-08T21:23:24.373Z,100961.72
2023-05-08T21:25:50.621Z,100966.28
2023-05-08T21:28:16.880Z,100965.75
2023-05-08T21:30:43.372Z,101064.00
2023-05-08T21:33:09.582Z,101047.50
2023-05-08T21:35:36.064Z,101030.91
2023-05-08T21:38:02.281Z,101023.16
2023-05-08T21:40:28.502Z,101047.69
2023-05-08T21:42:54.735Z,101041.50
2023-05-08T21:45:20.957Z,101047.59
2023-05-08T21:47:47.285Z,101047.03
2023-05-08T21:50:13.515Z,101041.28
2023-05-08T21:52:39.742Z,101053.06
2023-05-08T21:55:06.196Z,101109.06
2023-05-08T21:57:32.420Z,101087.94
2023-05-08T21:59:58.684Z,101137.63
2023-05-08T22:02:25.026Z,101136.38
2023-05-08T22:04:51.290Z,101136.47
2023-05-08T22:07:17.525Z,101148.75
2023-05-08T22:09:43.788Z,101192.53
2023-05-08T22:12:10.010Z,101151.28
2023-05-08T22:14:36.216Z,101172.88
2023-05-08T22:17:02.437Z,101176.06
2023-05-08T22:19:28.646Z,101176.19
2023-05-08T22:21:54.854Z,101178.66
2023-05-08T22:24:22.255Z,101160.16
2023-05-08T22:26:48.470Z,101198.44
2023-05-08T22:29:14.668Z,101169.81
2023-05-08T22:31:40.901Z,101185.50
2023-05-08T22:34:07.126Z,101155.59
2023-05-08T22:36:33.346Z,101199.16
2023-05-08T22:38:59.620Z,101109.13
2023-05-08T22:41:25.849Z,101118.84
2023-05-08T22:43:52.044Z,101114.56
2023-05-08T22:46:18.375Z,101078.63
2023-05-08T22:48:44.769Z,101125.53
2023-05-08T22:51:10.984Z,101153.56
2023-05-08T22:53:37.198Z,101112.13
2023-05-08T22:56:03.454Z,101092.94
2023-05-08T22:58:29.656Z,101180.09
2023-05-08T23:00:55.939Z,101195.06
2023-05-08T23:03:22.199Z,101194.38
2023-05-08T23:05:48.410Z,101170.75
2023-05-08T23:08:14.608Z,101189.38
2023-05-08T23:10:40.840Z,101156.91
2023-05-08T23:13:07.101Z,101214.97
2023-05-08T23:15:33.345Z,101176.25
2023-05-08T23:17:59.560Z,101181.00
2023-05-08T23:20:25.915Z,101151.94
2023-05-08T23:22:52.133Z,101123.03
2023-05-08T23:25:18.410Z,101136.91
2023-05-08T23:27:44.653Z,101142.03
2023-05-08T23:30:10.975Z,101115.34
2023-05-08T23:32:37.232Z,101128.03
2023-05-08T23:35:03.551Z,101109.97
2023-05-08T23:37:29.763Z,101103.88
2023-05-08T23:39:55.999Z,101091.13
2023-05-08T23:42:22.226Z,101111.97
2023-05-08T23:44:48.451Z,101139.31
2023-05-08T23:47:14.656Z,101140.56
2023-05-08T23:49:40.860Z,101149.22
2023-05-08T23:52:07.079Z,101224.84
2023-05-08T23:54:33.299Z,101244.34
2023-05-08T23:56:59.523Z,101271.69
2023-05-08T23:59:25.718Z,101282.88
